createdAt,value
2017-10-19T00:02:02.755Z,9.8
2017-10-19T00:07:03.112Z,9.8
2017-10-19T00:12:02.980Z,9.8
2017-10-19T00:17:03.610Z,9.7
2017-10-19T00:22:02.996Z,9.5
2017-10-19T00:27:02.890Z,9.5
2017-10-19T00:32:03.659Z,9.3
2017-10-19T00:37:03.393Z,9.2
2017-10-19T00:42:03.045Z,9.2
2017-10-19T00:47:02.906Z,9.2
2017-10-19T00:52:02.797Z,9.1
2017-10-19T00:57:03.422Z,9.1
2017-10-19T01:02:03.165Z,9.2
2017-10-19T01:07:03.471Z,9.1
2017-10-19T01:12:03.256Z,9.1
2017-10-19T01:17:03.123Z,9.1
2017-10-19T01:22:03.422Z,9.1
2017-10-19T01:27:02.905Z,9.1
2017-10-19T01:32:03.583Z,8.8
2017-10-19T01:37:03.234Z,8.7
2017-10-19T01:42:03.013Z,8.6
2017-10-19T01:47:03.601Z,8.6
2017-10-19T01:52:03.146Z,8.6
2017-10-19T01:57:02.901Z,8.5
2017-10-19T02:02:03.601Z,8.6
2017-10-19T02:07:03.192Z,8.6
2017-10-19T02:12:02.869Z,8.6
2017-10-19T02:17:03.621Z,8.6
2017-10-19T02:22:03.244Z,8.6
2017-10-19T02:27:02.867Z,8.6
2017-10-19T02:32:03.290Z,8.6
2017-10-19T02:37:02.995Z,8.6
2017-10-19T02:42:03.110Z,8.6
2017-10-19T02:47:03.220Z,8.5
2017-10-19T02:52:03.304Z,8.5
2017-10-19T02:57:03.316Z,8.4
2017-10-19T03:02:03.469Z,8.2
2017-10-19T03:07:02.776Z,8.2
2017-10-19T03:12:03.007Z,8.2
2017-10-19T03:17:03.339Z,8.2
2017-10-19T03:22:03.217Z,8.2
2017-10-19T03:27:03.282Z,8.3
2017-10-19T03:32:03.397Z,8.2
2017-10-19T03:37:03.442Z,8.2
2017-10-19T03:42:03.463Z,8.2
2017-10-19T03:47:02.732Z,8.2
2017-10-19T03:52:02.885Z,8.1
2017-10-19T03:57:03.028Z,8.1
2017-10-19T04:02:03.089Z,7.9
2017-10-19T04:07:03.336Z,7.9
2017-10-19T04:12:03.508Z,7.9
2017-10-19T04:17:03.634Z,7.9
2017-10-19T04:22:02.828Z,7.8
2017-10-19T04:27:03.061Z,7.8
2017-10-19T04:32:03.084Z,7.8
2017-10-19T04:37:03.179Z,7.8
2017-10-19T04:42:03.188Z,7.8
2017-10-19T04:47:03.217Z,7.8
2017-10-19T04:52:03.239Z,7.8
2017-10-19T04:57:03.293Z,7.7
2017-10-19T05:02:03.459Z,7.7
2017-10-19T05:07:03.598Z,7.7
2017-10-19T05:12:02.918Z,7.7
2017-10-19T05:17:10.056Z,7.7
2017-10-19T05:22:03.237Z,7.6
2017-10-19T05:27:03.523Z,7.6
2017-10-19T05:32:13.258Z,7.6
2017-10-19T05:37:03.044Z,7.6
2017-10-19T05:42:03.207Z,7.8
2017-10-19T05:47:17.863Z,8.1
2017-10-19T05:52:03.104Z,8.0
2017-10-19T05:57:03.555Z,8.1
2017-10-19T06:02:17.521Z,8.2
2017-10-19T06:07:02.828Z,8.2
2017-10-19T06:12:03.163Z,8.3
2017-10-19T06:17:18.439Z,8.4
2017-10-19T06:22:03.360Z,8.5
2017-10-19T06:27:02.987Z,8.5
2017-10-19T06:32:13.555Z,8.6
2017-10-19T06:37:03.527Z,8.8
2017-10-19T06:42:02.680Z,8.9
2017-10-19T06:47:13.354Z,9.1
2017-10-19T06:52:03.262Z,9.2
2017-10-19T06:57:03.739Z,9.3
2017-10-19T07:02:17.490Z,9.4
2017-10-19T07:07:02.878Z,9.5
2017-10-19T07:12:03.304Z,9.5
2017-10-19T07:17:13.854Z,9.6
2017-10-19T07:22:03.285Z,10.0
2017-10-19T07:27:03.524Z,10.1
2017-10-19T07:32:13.124Z,10.3
2017-10-19T07:37:03.347Z,10.3
2017-10-19T07:42:02.868Z,10.6
2017-10-19T07:47:17.855Z,10.6
2017-10-19T07:52:03.150Z,10.8
2017-10-19T07:57:03.378Z,11.0
2017-10-19T08:02:18.201Z,11.4
2017-10-19T08:07:03.025Z,11.4
2017-10-19T08:12:03.370Z,11.8
2017-10-19T08:17:13.898Z,11.7
2017-10-19T08:22:02.922Z,11.9
2017-10-19T08:27:03.173Z,12.0
2017-10-19T08:32:13.632Z,12.2
2017-10-19T08:37:02.898Z,12.4
2017-10-19T08:42:03.078Z,12.6
2017-10-19T08:47:13.897Z,12.9
2017-10-19T08:52:03.357Z,12.8
2017-10-19T08:57:03.503Z,13.2
2017-10-19T09:02:17.480Z,13.1
2017-10-19T09:07:03.214Z,13.2
2017-10-19T09:12:03.561Z,13.0
2017-10-19T09:17:13.156Z,13.1
2017-10-19T09:22:02.961Z,13.5
2017-10-19T09:27:03.298Z,13.6
2017-10-19T09:32:18.259Z,13.9
2017-10-19T09:37:03.383Z,14.2
2017-10-19T09:42:03.564Z,14.5
2017-10-19T09:47:28.591Z,14.8
2017-10-19T09:52:03.458Z,15.0
2017-10-19T09:57:02.739Z,15.3
2017-10-19T10:02:12.897Z,15.7
2017-10-19T10:07:03.497Z,15.7
2017-10-19T10:12:02.979Z,15.9
2017-10-19T10:17:18.120Z,16.2
2017-10-19T10:22:02.919Z,16.4
2017-10-19T10:27:03.143Z,16.6
2017-10-19T10:32:17.823Z,16.9
2017-10-19T10:37:03.094Z,17.1
2017-10-19T10:42:02.845Z,17.5
2017-10-19T10:47:09.167Z,17.7
2017-10-19T10:52:02.615Z,18.2
2017-10-19T10:57:02.890Z,18.2
2017-10-19T11:02:12.963Z,18.9
2017-10-19T11:07:03.479Z,18.8
2017-10-19T11:12:03.420Z,19.3
2017-10-19T11:17:18.000Z,19.7
2017-10-19T11:22:02.975Z,20.1
2017-10-19T11:27:03.255Z,20.6
2017-10-19T11:32:17.101Z,21.1
2017-10-19T11:37:02.869Z,21.6
2017-10-19T11:42:03.207Z,22.2
2017-10-19T11:47:13.913Z,22.7
2017-10-19T11:52:02.827Z,22.8
2017-10-19T11:57:03.132Z,22.8
2017-10-19T12:02:17.268Z,23.5
2017-10-19T12:07:02.799Z,23.4
2017-10-19T12:12:02.781Z,23.8
2017-10-19T12:17:17.195Z,24.6
2017-10-19T12:22:03.164Z,24.6
2017-10-19T12:27:02.739Z,25.1
2017-10-19T12:32:13.490Z,25.9
2017-10-19T12:37:02.809Z,25.8
2017-10-19T12:42:03.104Z,26.7
2017-10-19T12:47:17.103Z,26.6
2017-10-19T12:52:02.670Z,27.3
2017-10-19T12:57:02.957Z,27.3
2017-10-19T13:02:13.762Z,28.4
2017-10-19T13:07:02.758Z,28.4
2017-10-19T13:12:03.204Z,29.4
2017-10-19T13:17:17.295Z,29.3
2017-10-19T13:22:03.093Z,30.0
2017-10-19T13:27:03.393Z,30.2
2017-10-19T13:32:13.975Z,30.2
2017-10-19T13:37:03.443Z,30.6
2017-10-19T13:42:03.051Z,31.1
2017-10-19T13:47:13.719Z,32.2
2017-10-19T13:52:03.483Z,32.2
2017-10-19T13:57:03.324Z,32.9
2017-10-19T14:02:22.994Z,34.4
2017-10-19T14:07:03.172Z,34.4
2017-10-19T14:12:03.488Z,35.3
2017-10-19T14:17:17.454Z,36.1
2017-10-19T14:22:03.540Z,36.7
2017-10-19T14:27:02.725Z,37.6
2017-10-19T14:32:13.152Z,38.4
2017-10-19T14:37:02.640Z,39.6
2017-10-19T14:42:03.015Z,39.6
2017-10-19T14:47:13.603Z,40.3
2017-10-19T14:52:03.461Z,40.0
2017-10-19T14:57:02.679Z,40.0
2017-10-19T15:02:13.436Z,40.2
2017-10-19T15:07:03.001Z,40.2
2017-10-19T15:12:03.326Z,40.3
2017-10-19T15:17:18.445Z,40.3
2017-10-19T15:22:03.094Z,40.6
2017-10-19T15:27:03.432Z,40.6
2017-10-19T15:32:13.834Z,40.6
2017-10-19T15:37:02.904Z,40.3
2017-10-19T15:42:03.086Z,40.0
2017-10-19T15:47:13.838Z,38.7
2017-10-19T15:52:03.139Z,37.8
2017-10-19T15:57:03.209Z,36.7
2017-10-19T16:02:13.785Z,35.5
2017-10-19T16:07:02.900Z,35.4
2017-10-19T16:12:03.335Z,34.0
2017-10-19T16:17:14.025Z,32.3
2017-10-19T16:22:03.580Z,30.1
2017-10-19T16:27:03.040Z,28.3
2017-10-19T16:32:13.799Z,26.9
2017-10-19T16:37:03.024Z,25.6
2017-10-19T16:42:03.096Z,23.1
2017-10-19T16:47:13.736Z,23.1
2017-10-19T16:52:03.559Z,22.4
2017-10-19T16:57:03.498Z,21.8
2017-10-19T17:02:14.456Z,20.8
2017-10-19T17:07:02.954Z,20.8
2017-10-19T17:12:03.364Z,20.4
2017-10-19T17:17:09.512Z,20.0
2017-10-19T17:22:03.519Z,19.6
2017-10-19T17:27:02.747Z,18.8
2017-10-19T17:32:03.106Z,18.7
2017-10-19T17:37:03.108Z,18.3
2017-10-19T17:42:03.124Z,17.7
2017-10-19T17:47:03.221Z,17.6
2017-10-19T17:52:03.338Z,17.5
2017-10-19T17:57:03.430Z,17.3
2017-10-19T18:02:03.721Z,17.2
2017-10-19T18:07:02.937Z,17.1
2017-10-19T18:12:03.389Z,16.7
2017-10-19T18:17:09.832Z,16.6
2017-10-19T18:22:03.414Z,16.6
2017-10-19T18:27:03.687Z,16.5
2017-10-19T18:32:03.703Z,16.4
2017-10-19T18:37:03.021Z,16.3
2017-10-19T18:42:03.311Z,16.3
2017-10-19T18:47:07.177Z,16.1
2017-10-19T18:52:03.365Z,16.0
2017-10-19T18:57:03.328Z,16.0
2017-10-19T19:02:03.438Z,16.0
2017-10-19T19:07:02.813Z,15.9
2017-10-19T19:12:03.214Z,15.8
2017-10-19T19:17:03.141Z,15.8
2017-10-19T19:22:03.465Z,15.6
2017-10-19T19:27:03.313Z,15.5
2017-10-19T19:32:03.480Z,15.3
2017-10-19T19:37:03.515Z,15.2
2017-10-19T19:42:03.561Z,15.2
2017-10-19T19:47:02.837Z,15.2
2017-10-19T19:52:03.159Z,15.2
2017-10-19T19:57:03.096Z,15.3
2017-10-19T20:02:03.422Z,15.2
2017-10-19T20:07:03.416Z,15.2
2017-10-19T20:12:03.775Z,15.2
2017-10-19T20:17:03.736Z,15.1
2017-10-19T20:22:02.984Z,15.1
2017-10-19T20:27:03.067Z,15.1
2017-10-19T20:32:03.146Z,15.1
2017-10-19T20:37:03.275Z,14.9
2017-10-19T20:42:03.226Z,14.8
2017-10-19T20:47:03.381Z,14.4
2017-10-19T20:52:03.444Z,14.4
2017-10-19T20:57:03.461Z,14.2
2017-10-19T21:02:02.669Z,14.1
2017-10-19T21:07:02.972Z,14.1
2017-10-19T21:12:03.179Z,13.9
2017-10-19T21:17:03.245Z,13.9
2017-10-19T21:22:03.407Z,13.8
2017-10-19T21:27:03.517Z,13.8
2017-10-19T21:32:03.558Z,13.7
2017-10-19T21:37:02.756Z,13.6
2017-10-19T21:42:02.880Z,13.5
2017-10-19T21:47:03.067Z,13.4
2017-10-19T21:52:03.112Z,13.3
2017-10-19T21:57:03.067Z,13.1
2017-10-19T22:02:03.418Z,13.0
2017-10-19T22:07:03.104Z,12.9
2017-10-19T22:12:03.097Z,12.9
2017-10-19T22:22:03.750Z,12.8
2017-10-19T22:27:02.856Z,12.8
2017-10-19T22:32:03.495Z,12.8
2017-10-19T22:37:03.056Z,12.8
2017-10-19T22:42:02.694Z,12.8
2017-10-19T22:47:03.666Z,12.9
2017-10-19T22:52:02.721Z,13.0
2017-10-19T22:57:03.458Z,12.9
2017-10-19T23:02:03.057Z,13.0
2017-10-19T23:07:03.258Z,12.9
2017-10-19T23:12:02.929Z,13.0
2017-10-19T23:17:03.471Z,13.0
2017-10-19T23:22:02.959Z,13.0
2017-10-19T23:27:03.662Z,13.0
2017-10-19T23:32:03.155Z,13.0
2017-10-19T23:37:03.363Z,13.0
2017-10-19T23:42:02.898Z,13.0
2017-10-19T23:47:03.512Z,13.1
2017-10-19T23:52:02.979Z,13.1
2017-10-19T23:57:03.593Z,13.0
